Time;durP1;ratioP1;P1;durP2;ratioP2;P2;SDS_P1;SDS_P2;PMS_P1;PMS_P2;Temp;Humidity;BMP_temperature;BMP_pressure;BME280_temperature;BME280_humidity;BME280_pressure;Samples;Min_cycle;Max_cycle;Signal;HPM_P1;HPM_P2
2022/03/19 00:00:53;;;;;;;98.63;41.80;;;6.80;87.40;;;;;;5108924;28;20240;-77
2022/03/19 00:03:20;;;;;;;98.07;41.90;;;6.80;87.10;;;;;;5110560;28;20417;-77
2022/03/19 00:05:46;;;;;;;93.60;40.20;;;6.80;87.10;;;;;;5107523;28;20405;-77
2022/03/19 00:08:16;;;;;;;104.17;44.90;;;6.80;86.90;;;;;;5109346;28;20409;-78
2022/03/19 00:10:42;;;;;;;107.20;45.37;;;6.80;86.80;;;;;;5105762;28;20824;-78
2022/03/19 00:13:09;;;;;;;98.13;43.00;;;6.80;86.90;;;;;;5100468;28;20451;-77
2022/03/19 00:15:34;;;;;;;99.83;42.27;;;6.80;86.90;;;;;;5104725;28;20474;-76
2022/03/19 00:18:01;;;;;;;94.40;41.60;;;6.80;86.80;;;;;;5109538;28;20425;-78
2022/03/19 00:20:27;;;;;;;91.00;39.33;;;6.80;86.80;;;;;;5097703;28;20231;-76
2022/03/19 00:22:52;;;;;;;92.60;40.87;;;6.80;86.80;;;;;;5077013;28;20464;-78
2022/03/19 00:25:18;;;;;;;99.37;42.90;;;6.80;86.80;;;;;;5095956;28;20183;-77
2022/03/19 00:27:44;;;;;;;92.07;39.43;;;6.80;86.60;;;;;;5088389;28;20179;-78
2022/03/19 00:30:10;;;;;;;87.33;39.00;;;6.80;86.80;;;;;;5074888;28;20191;-79
2022/03/19 00:32:36;;;;;;;91.10;39.43;;;6.70;86.80;;;;;;5084499;28;20180;-79
2022/03/19 00:35:03;;;;;;;95.83;41.03;;;6.70;86.80;;;;;;5077089;28;20421;-77
2022/03/19 00:37:30;;;;;;;93.43;40.10;;;6.80;86.60;;;;;;5095970;28;20417;-78
2022/03/19 00:39:55;;;;;;;95.93;41.10;;;6.80;86.50;;;;;;5096454;28;20449;-77
2022/03/19 00:42:21;;;;;;;87.90;39.23;;;6.70;86.80;;;;;;5096266;28;20468;-77
2022/03/19 00:44:47;;;;;;;85.47;40.17;;;6.70;86.80;;;;;;5093874;28;20228;-78
2022/03/19 00:47:13;;;;;;;92.03;41.07;;;6.70;86.80;;;;;;5091614;28;20270;-76
2022/03/19 00:49:39;;;;;;;101.80;42.27;;;6.70;86.90;;;;;;5091886;28;20999;-79
2022/03/19 00:52:05;;;;;;;95.20;42.70;;;6.70;86.90;;;;;;5091301;28;20697;-77
2022/03/19 00:54:31;;;;;;;85.87;37.87;;;6.60;86.80;;;;;;5091585;28;20211;-77
2022/03/19 00:56:56;;;;;;;88.83;39.10;;;6.60;86.90;;;;;;5091147;28;20460;-77
2022/03/19 00:59:22;;;;;;;88.33;40.87;;;6.60;87.00;;;;;;5074117;28;20215;-78
2022/03/19 01:01:48;;;;;;;94.70;41.47;;;6.60;87.00;;;;;;5073771;28;20207;-78
2022/03/19 01:04:13;;;;;;;98.67;39.83;;;6.60;86.80;;;;;;5092237;28;20189;-76
2022/03/19 01:06:39;;;;;;;93.50;40.90;;;6.50;86.60;;;;;;5091819;28;20270;-79
2022/03/19 01:09:05;;;;;;;86.90;40.20;;;6.50;86.50;;;;;;5075751;28;20540;-79
2022/03/19 01:11:31;;;;;;;86.70;40.17;;;6.50;86.20;;;;;;5092147;28;20199;-79
2022/03/19 01:13:57;;;;;;;91.53;40.80;;;6.50;86.00;;;;;;5093430;28;20218;-79
2022/03/19 01:16:25;;;;;;;99.67;42.47;;;6.50;85.70;;;;;;5092440;28;20198;-78
2022/03/19 01:18:51;;;;;;;93.67;38.60;;;6.50;85.60;;;;;;5092538;28;20213;-78
2022/03/19 01:21:18;;;;;;;97.13;40.83;;;6.60;85.30;;;;;;5092496;28;20465;-78
2022/03/19 01:23:44;;;;;;;80.93;39.33;;;6.60;85.20;;;;;;5095317;28;20417;-79
2022/03/19 01:26:09;;;;;;;88.57;39.13;;;6.60;84.90;;;;;;5093048;28;20420;-79
2022/03/19 01:28:35;;;;;;;94.97;39.73;;;6.60;84.40;;;;;;5090825;28;20421;-78
2022/03/19 01:31:02;;;;;;;88.70;39.03;;;6.60;84.40;;;;;;5093170;28;20581;-77
2022/03/19 01:33:28;;;;;;;87.20;39.30;;;6.60;83.80;;;;;;5093031;28;20195;-77
2022/03/19 01:35:54;;;;;;;86.60;40.67;;;6.60;83.80;;;;;;5095885;28;20425;-77
2022/03/19 01:38:19;;;;;;;94.00;38.80;;;6.60;83.70;;;;;;5101154;28;20414;-76
2022/03/19 01:40:45;;;;;;;92.83;40.40;;;6.70;83.60;;;;;;5097757;28;20489;-77
2022/03/19 01:43:11;;;;;;;87.97;39.90;;;6.70;83.30;;;;;;5098774;28;20515;-77
2022/03/19 01:45:37;;;;;;;96.47;38.73;;;6.70;83.30;;;;;;5099508;28;20183;-75
2022/03/19 01:48:03;;;;;;;78.23;36.40;;;6.60;83.00;;;;;;5085508;28;20452;-76
2022/03/19 01:50:29;;;;;;;87.70;38.10;;;6.60;83.30;;;;;;5081071;28;20180;-77
2022/03/19 01:52:56;;;;;;;87.67;38.60;;;6.60;83.30;;;;;;5084948;28;20429;-79
2022/03/19 01:55:25;;;;;;;95.17;40.90;;;6.60;83.40;;;;;;5101287;28;20429;-75
2022/03/19 01:57:51;;;;;;;84.00;39.43;;;6.60;83.30;;;;;;5081689;28;20455;-77
2022/03/19 02:00:22;;;;;;;91.17;40.50;;;6.50;83.30;;;;;;5093218;28;20480;-76
2022/03/19 02:02:49;;;;;;;85.23;38.27;;;6.50;83.30;;;;;;5075006;28;20844;-76
2022/03/19 02:05:17;;;;;;;88.47;39.40;;;6.50;83.40;;;;;;5097510;28;20447;-75
2022/03/19 02:07:44;;;;;;;81.20;37.80;;;6.50;83.30;;;;;;5098956;28;20508;-77
2022/03/19 02:10:12;;;;;;;86.27;39.20;;;6.50;83.40;;;;;;5088895;28;20425;-77
2022/03/19 02:12:38;;;;;;;76.83;36.57;;;6.50;83.10;;;;;;5080914;28;20428;-77
2022/03/19 02:15:05;;;;;;;79.47;36.47;;;6.40;83.30;;;;;;5082963;28;20787;-76
2022/03/19 02:17:31;;;;;;;94.87;40.07;;;6.40;83.30;;;;;;5101699;28;20431;-77
2022/03/19 02:19:57;;;;;;;86.13;37.50;;;6.40;83.10;;;;;;5102571;28;20476;-77
2022/03/19 02:22:27;;;;;;;92.47;38.27;;;6.40;83.30;;;;;;5105569;28;20444;-75
2022/03/19 02:27:38;;;;;;;89.50;37.53;;;6.40;83.40;;;;;;5097119;28;20501;-77
2022/03/19 02:30:06;;;;;;;83.67;38.43;;;6.30;83.60;;;;;;5087860;28;20453;-77
2022/03/19 02:32:33;;;;;;;82.90;37.10;;;6.40;83.60;;;;;;5105450;28;20199;-77
2022/03/19 02:34:59;;;;;;;86.07;36.80;;;6.40;83.40;;;;;;5099332;28;20782;-77
2022/03/19 02:37:24;;;;;;;82.80;39.07;;;6.30;83.40;;;;;;5103025;28;20417;-78
2022/03/19 02:39:50;;;;;;;86.93;37.00;;;6.30;83.70;;;;;;5105999;28;20284;-77
2022/03/19 02:42:19;;;;;;;82.17;36.90;;;6.30;83.70;;;;;;5106878;28;20195;-76
2022/03/19 02:44:45;;;;;;;80.43;37.40;;;6.30;83.60;;;;;;5102367;28;20167;-77
2022/03/19 02:47:12;;;;;;;83.10;37.53;;;6.20;83.70;;;;;;5081815;28;20419;-77
2022/03/19 02:49:38;;;;;;;89.17;36.47;;;6.20;83.70;;;;;;5099459;28;20443;-76
2022/03/19 02:52:04;;;;;;;82.60;36.10;;;6.20;83.70;;;;;;5101668;28;20436;-77
2022/03/19 02:54:31;;;;;;;80.33;36.70;;;6.20;83.70;;;;;;5099538;28;20413;-74
2022/03/19 02:56:58;;;;;;;83.40;37.27;;;6.20;83.70;;;;;;5088663;28;20425;-76
2022/03/19 02:59:27;;;;;;;81.37;37.07;;;6.20;83.70;;;;;;5099075;28;20513;-79
2022/03/19 03:02:01;;;;;;;79.97;36.37;;;6.20;83.70;;;;;;5081675;28;20453;-79
2022/03/19 03:04:28;;;;;;;89.67;38.43;;;6.10;83.70;;;;;;5097732;28;20511;-78
2022/03/19 03:06:56;;;;;;;83.87;37.10;;;6.10;83.70;;;;;;5097422;28;20771;-76
2022/03/19 03:09:24;;;;;;;77.17;35.97;;;6.10;83.80;;;;;;5091317;28;20771;-78
2022/03/19 03:11:51;;;;;;;85.93;37.87;;;6.10;83.80;;;;;;5097508;28;20490;-76
2022/03/19 03:14:20;;;;;;;87.43;37.33;;;6.10;83.70;;;;;;5097776;28;20420;-76
2022/03/19 03:16:47;;;;;;;83.60;39.13;;;6.10;83.60;;;;;;5103432;28;20781;-79
2022/03/19 03:19:14;;;;;;;73.33;35.90;;;6.10;83.30;;;;;;5094011;28;20830;-76
2022/03/19 03:21:40;;;;;;;94.10;38.03;;;6.10;83.40;;;;;;5096432;28;20448;-77
2022/03/19 03:24:08;;;;;;;84.17;36.33;;;6.00;83.30;;;;;;5102117;28;20409;-77
2022/03/19 03:26:34;;;;;;;77.30;35.50;;;6.10;83.30;;;;;;5087336;28;20245;-78
2022/03/19 03:28:59;;;;;;;83.27;36.67;;;6.00;83.30;;;;;;5100240;28;20419;-79
2022/03/19 03:31:26;;;;;;;76.40;34.17;;;6.00;83.40;;;;;;5104214;28;20441;-76
2022/03/19 03:33:53;;;;;;;77.03;36.00;;;6.00;83.70;;;;;;5099360;28;20722;-78
2022/03/19 03:36:19;;;;;;;80.87;38.00;;;6.00;83.60;;;;;;5077570;28;20409;-78
2022/03/19 03:38:45;;;;;;;86.97;36.83;;;6.00;83.60;;;;;;5093942;28;20418;-77
2022/03/19 03:41:10;;;;;;;86.93;36.90;;;6.00;83.60;;;;;;5093454;28;20576;-77
2022/03/19 03:43:36;;;;;;;72.90;35.27;;;6.00;83.60;;;;;;5076620;28;20183;-79
2022/03/19 03:46:04;;;;;;;81.80;35.57;;;6.00;83.70;;;;;;5093097;28;20183;-77
2022/03/19 03:48:31;;;;;;;91.07;36.87;;;5.90;83.80;;;;;;5092959;28;20191;-79
2022/03/19 03:50:58;;;;;;;83.50;36.60;;;5.90;83.80;;;;;;5093729;28;20953;-79
2022/03/19 03:53:26;;;;;;;80.53;36.87;;;5.90;83.80;;;;;;5094238;28;20842;-79
2022/03/19 03:55:52;;;;;;;74.23;35.10;;;5.80;84.00;;;;;;5075646;28;20779;-80
2022/03/19 03:58:18;;;;;;;79.30;35.50;;;5.70;84.10;;;;;;5093543;28;20790;-78
2022/03/19 04:00:44;;;;;;;90.30;39.50;;;5.80;84.10;;;;;;5093740;28;20547;-77
2022/03/19 04:03:11;;;;;;;80.57;37.20;;;5.80;83.80;;;;;;5094338;28;20512;-77
2022/03/19 04:05:37;;;;;;;77.00;35.63;;;5.80;83.70;;;;;;5081183;28;20414;-78
2022/03/19 04:08:03;;;;;;;85.93;36.90;;;5.80;83.70;;;;;;5093093;28;20431;-77
2022/03/19 04:10:31;;;;;;;79.83;36.33;;;5.80;83.60;;;;;;5093964;28;20262;-78
2022/03/19 04:12:57;;;;;;;77.10;34.80;;;5.80;83.10;;;;;;5093276;28;20455;-78
2022/03/19 04:15:23;;;;;;;83.10;36.90;;;5.70;83.40;;;;;;5092776;28;20421;-78
2022/03/19 04:17:49;;;;;;;80.07;33.33;;;5.80;83.30;;;;;;5092942;28;20421;-77
2022/03/19 04:20:16;;;;;;;78.67;35.53;;;5.80;83.10;;;;;;5078672;28;20514;-77
2022/03/19 04:22:47;;;;;;;78.80;35.97;;;5.80;83.00;;;;;;5075018;28;20421;-78
2022/03/19 04:25:16;;;;;;;83.33;34.83;;;5.80;82.70;;;;;;5087056;28;20461;-77
2022/03/19 04:27:45;;;;;;;83.20;37.30;;;5.80;82.40;;;;;;5095869;28;20470;-78
2022/03/19 04:30:12;;;;;;;75.23;35.30;;;5.70;82.50;;;;;;5097095;28;20444;-78
2022/03/19 04:32:51;;;;;;;82.37;35.20;;;5.70;83.00;;;;;;5098144;28;20474;-77
2022/03/19 04:38:09;;;;;;;82.43;35.90;;;5.70;83.00;;;;;;5090280;28;20416;-78
2022/03/19 04:40:36;;;;;;;72.33;33.30;;;5.60;83.00;;;;;;5092743;28;20468;-78
2022/03/19 04:43:02;;;;;;;78.13;33.40;;;5.60;82.80;;;;;;5088745;28;20425;-77
2022/03/19 04:45:28;;;;;;;82.13;34.70;;;5.60;83.10;;;;;;5095986;28;20439;-78
2022/03/19 04:47:54;;;;;;;74.63;34.50;;;5.60;83.10;;;;;;5075777;28;20736;-77
2022/03/19 04:50:20;;;;;;;80.07;36.00;;;5.60;82.80;;;;;;5093223;28;20795;-76
2022/03/19 04:52:47;;;;;;;80.23;36.23;;;5.60;82.70;;;;;;5079585;28;20183;-76
2022/03/19 04:55:13;;;;;;;72.10;34.73;;;5.60;82.80;;;;;;5092737;28;20429;-77
2022/03/19 04:57:39;;;;;;;80.67;34.77;;;5.60;83.00;;;;;;5078783;28;20417;-76
2022/03/19 05:00:08;;;;;;;82.33;34.03;;;5.60;82.80;;;;;;5074425;28;20203;-76
2022/03/19 05:02:34;;;;;;;76.47;35.03;;;5.50;82.80;;;;;;5093221;28;20512;-76
2022/03/19 05:05:00;;;;;;;80.90;34.00;;;5.50;82.70;;;;;;5092626;28;20440;-77
2022/03/19 05:07:27;;;;;;;77.30;34.57;;;5.60;82.70;;;;;;5092687;28;20405;-77
2022/03/19 05:12:40;;;;;;;73.73;35.17;;;5.50;82.40;;;;;;5092802;28;20393;-77
2022/03/19 05:15:10;;;;;;;76.53;34.60;;;5.50;82.50;;;;;;5091403;28;20907;-76
2022/03/19 05:17:36;;;;;;;75.23;34.37;;;5.50;82.50;;;;;;5093186;28;20409;-77
2022/03/19 05:20:02;;;;;;;69.97;33.27;;;5.50;82.50;;;;;;5079329;28;20463;-76
2022/03/19 05:22:31;;;;;;;69.03;31.57;;;5.40;82.50;;;;;;5074667;28;20474;-76
2022/03/19 05:24:57;;;;;;;79.43;36.80;;;5.40;82.50;;;;;;5069743;28;20426;-78
2022/03/19 05:27:23;;;;;;;79.03;37.43;;;5.40;82.40;;;;;;5075183;28;20417;-75
2022/03/19 05:29:49;;;;;;;72.83;33.30;;;5.40;82.50;;;;;;5084381;28;20511;-77
2022/03/19 05:32:16;;;;;;;81.03;35.57;;;5.40;82.40;;;;;;5081551;28;20480;-78
2022/03/19 05:34:42;;;;;;;88.13;36.03;;;5.40;82.40;;;;;;5080599;28;20324;-76
2022/03/19 05:37:09;;;;;;;81.00;35.20;;;5.30;82.50;;;;;;5092616;28;20413;-77
2022/03/19 05:39:36;;;;;;;74.17;34.40;;;5.30;82.50;;;;;;5062107;28;20474;-77
2022/03/19 05:42:02;;;;;;;84.13;37.00;;;5.40;82.20;;;;;;5075648;28;20869;-77
2022/03/19 05:44:28;;;;;;;86.13;36.77;;;5.40;82.10;;;;;;5088396;28;20410;-78
2022/03/19 05:46:54;;;;;;;75.77;32.50;;;5.40;81.50;;;;;;5093440;28;20814;-75
2022/03/19 05:49:20;;;;;;;75.63;35.63;;;5.40;81.50;;;;;;5088221;28;21150;-79
2022/03/19 05:51:46;;;;;;;77.43;34.80;;;5.40;81.70;;;;;;5094377;28;20456;-76
2022/03/19 05:54:12;;;;;;;73.87;33.47;;;5.40;81.80;;;;;;5076723;28;20265;-77
2022/03/19 05:56:38;;;;;;;81.77;35.07;;;5.40;81.80;;;;;;5075594;28;20266;-76
2022/03/19 05:59:04;;;;;;;85.73;36.87;;;5.40;81.80;;;;;;5075418;28;20840;-76
2022/03/19 06:01:30;;;;;;;81.03;32.03;;;5.40;81.70;;;;;;5093973;28;20585;-77
2022/03/19 06:03:57;;;;;;;73.30;33.93;;;5.40;81.70;;;;;;5094721;28;20417;-77
2022/03/19 06:06:24;;;;;;;65.60;31.93;;;5.40;81.20;;;;;;5083113;28;20425;-77
2022/03/19 06:08:49;;;;;;;72.43;33.33;;;5.50;80.80;;;;;;5108693;28;20420;-76
2022/03/19 06:11:15;;;;;;;73.20;33.90;;;5.50;80.80;;;;;;5079358;28;20453;-77
2022/03/19 06:13:41;;;;;;;74.83;34.77;;;5.50;80.50;;;;;;5094761;28;20613;-77
2022/03/19 06:16:07;;;;;;;76.43;33.90;;;5.50;80.50;;;;;;5097971;28;20184;-76
2022/03/19 06:18:33;;;;;;;74.90;33.60;;;5.60;80.50;;;;;;5098908;28;20424;-77
2022/03/19 06:20:59;;;;;;;73.40;33.60;;;5.60;80.00;;;;;;5104883;28;20460;-77
2022/03/19 06:23:25;;;;;;;76.17;32.27;;;5.60;80.20;;;;;;5098431;28;20421;-79
2022/03/19 06:25:52;;;;;;;80.77;33.57;;;5.60;80.30;;;;;;5089454;28;20842;-78
2022/03/19 06:28:18;;;;;;;72.90;31.60;;;5.60;79.90;;;;;;5093206;28;20187;-78
2022/03/19 06:30:43;;;;;;;81.37;33.43;;;5.50;79.90;;;;;;5097901;28;20441;-77
2022/03/19 06:33:11;;;;;;;76.33;33.53;;;5.50;80.00;;;;;;5097520;28;20440;-77
2022/03/19 06:38:24;;;;;;;75.70;33.33;;;5.50;79.90;;;;;;5094285;28;20845;-76
2022/03/19 06:40:50;;;;;;;76.93;34.10;;;5.60;79.50;;;;;;5093460;28;20521;-78
2022/03/19 06:43:16;;;;;;;76.83;33.87;;;5.60;79.30;;;;;;5075460;28;20421;-76
2022/03/19 06:45:42;;;;;;;73.90;33.73;;;5.60;79.30;;;;;;5093883;28;20191;-77
2022/03/19 06:48:07;;;;;;;76.00;34.77;;;5.60;79.50;;;;;;5091615;28;20437;-76
2022/03/19 06:50:34;;;;;;;77.07;34.33;;;5.60;79.30;;;;;;5074442;28;20441;-77
2022/03/19 06:53:01;;;;;;;77.93;34.30;;;5.60;79.20;;;;;;5096143;28;20271;-77
2022/03/19 06:55:27;;;;;;;74.60;33.30;;;5.60;78.90;;;;;;5095955;28;20425;-76
2022/03/19 06:57:53;;;;;;;80.03;34.30;;;5.60;78.70;;;;;;5076426;28;20432;-80
2022/03/19 07:00:19;;;;;;;72.37;32.40;;;5.70;78.70;;;;;;5095117;28;20234;-78
2022/03/19 07:02:55;;;;;;;78.83;33.80;;;5.70;78.00;;;;;;5117866;28;20421;-78
2022/03/19 07:05:28;;;;;;;71.87;32.37;;;5.70;78.10;;;;;;5113878;28;20443;-79
2022/03/19 07:07:56;;;;;;;70.00;32.20;;;5.80;77.80;;;;;;5098134;28;20441;-78
2022/03/19 07:10:21;;;;;;;73.70;32.50;;;5.80;77.60;;;;;;5103560;28;20554;-77
2022/03/19 07:12:50;;;;;;;78.17;33.93;;;5.90;77.10;;;;;;5109381;28;20824;-78
2022/03/19 07:15:17;;;;;;;77.13;33.80;;;5.90;77.00;;;;;;5109118;28;20171;-77
2022/03/19 07:17:44;;;;;;;72.47;31.97;;;6.00;76.50;;;;;;5104500;28;20409;-77
2022/03/19 07:20:11;;;;;;;69.70;32.80;;;6.00;76.50;;;;;;5088948;28;20500;-78
2022/03/19 07:22:50;;;;;;;65.47;30.67;;;6.10;76.10;;;;;;5085961;28;20454;-77
2022/03/19 07:25:16;;;;;;;65.60;31.43;;;6.10;75.40;;;;;;5075105;28;20513;-77
2022/03/19 07:27:42;;;;;;;67.87;31.83;;;6.20;74.90;;;;;;5091821;28;20468;-76
2022/03/19 07:30:08;;;;;;;71.93;32.33;;;6.20;75.10;;;;;;5079557;28;20478;-78
2022/03/19 07:32:34;;;;;;;71.70;31.90;;;6.30;74.80;;;;;;5095566;28;20576;-78
2022/03/19 07:35:00;;;;;;;76.20;31.77;;;6.30;74.20;;;;;;5095995;28;20409;-76
2022/03/19 07:37:28;;;;;;;67.90;30.73;;;6.30;74.50;;;;;;5106855;28;20638;-78
2022/03/19 07:39:56;;;;;;;67.27;29.83;;;6.30;74.50;;;;;;5076935;28;20468;-77
2022/03/19 07:42:22;;;;;;;69.80;31.53;;;6.30;74.60;;;;;;5081984;28;20433;-78
2022/03/19 07:44:48;;;;;;;68.07;31.17;;;6.40;74.30;;;;;;5107740;28;20411;-77
2022/03/19 07:47:14;;;;;;;64.57;30.60;;;6.50;72.70;;;;;;5077959;28;20417;-77
2022/03/19 07:49:40;;;;;;;60.00;28.77;;;6.60;72.40;;;;;;5095990;28;20544;-78
2022/03/19 07:52:08;;;;;;;55.10;29.10;;;6.70;71.60;;;;;;5078518;28;20469;-78
2022/03/19 07:54:36;;;;;;;60.50;30.13;;;6.70;71.00;;;;;;5079038;28;20429;-78
2022/03/19 07:57:03;;;;;;;66.37;28.20;;;6.80;71.00;;;;;;5076101;28;20425;-77
2022/03/19 07:59:29;;;;;;;58.03;28.53;;;6.90;70.20;;;;;;5094844;28;20421;-76
2022/03/19 08:01:55;;;;;;;63.27;30.60;;;6.90;69.40;;;;;;5094517;28;20445;-76
2022/03/19 08:04:22;;;;;;;54.07;28.60;;;6.90;69.40;;;;;;5095208;28;20457;-77
2022/03/19 08:06:49;;;;;;;64.70;28.83;;;7.00;69.20;;;;;;5094793;28;20437;-77
2022/03/19 08:09:15;;;;;;;58.00;27.83;;;7.10;68.50;;;;;;5094363;28;20426;-78
2022/03/19 08:11:41;;;;;;;67.17;30.07;;;7.10;67.70;;;;;;5077109;28;21022;-77
2022/03/19 08:14:07;;;;;;;52.40;27.77;;;7.10;67.90;;;;;;5096919;28;20650;-78
2022/03/19 08:16:33;;;;;;;55.87;26.70;;;7.20;67.70;;;;;;5094411;28;20428;-78
2022/03/19 08:19:00;;;;;;;59.50;28.33;;;7.30;67.50;;;;;;5095068;28;20421;-76
2022/03/19 08:21:26;;;;;;;57.93;27.77;;;7.40;66.90;;;;;;5095408;28;20590;-77
2022/03/19 08:23:52;;;;;;;54.73;27.03;;;7.50;65.80;;;;;;5079967;28;20434;-78
2022/03/19 08:26:18;;;;;;;55.83;27.03;;;7.60;65.30;;;;;;5088422;28;20444;-78
2022/03/19 08:28:44;;;;;;;51.20;26.80;;;7.70;64.70;;;;;;5095058;28;20791;-78
2022/03/19 08:31:09;;;;;;;47.17;25.13;;;7.70;63.90;;;;;;5093667;28;20298;-77
2022/03/19 08:33:35;;;;;;;55.77;27.60;;;7.80;63.70;;;;;;5094536;28;20179;-77
2022/03/19 08:36:01;;;;;;;59.33;27.10;;;7.80;63.70;;;;;;5094665;28;20195;-76
2022/03/19 08:41:11;;;;;;;48.23;24.63;;;8.00;62.20;;;;;;5093301;28;20222;-77
2022/03/19 08:43:37;;;;;;;50.37;25.90;;;8.00;62.20;;;;;;5094344;28;20469;-77
2022/03/19 08:46:03;;;;;;;48.43;24.43;;;8.10;61.50;;;;;;5093376;28;20192;-77
2022/03/19 08:48:29;;;;;;;43.63;23.10;;;8.10;61.70;;;;;;5093586;28;20441;-77
2022/03/19 08:51:39;;;;;;;44.67;22.97;;;8.10;60.10;;;;;;5076197;28;20445;-79
2022/03/19 08:53:40;;;;;;;46.10;22.47;;;8.20;59.20;;;;;;5094050;28;20206;-78
2022/03/19 08:56:06;;;;;;;48.37;23.07;;;8.30;59.10;;;;;;5093491;28;20421;-78
2022/03/19 08:58:31;;;;;;;41.27;22.53;;;8.40;58.90;;;;;;5093857;28;20179;-77
2022/03/19 09:00:57;;;;;;;43.53;22.97;;;8.40;58.70;;;;;;5093434;28;20214;-77
2022/03/19 09:03:26;;;;;;;51.20;23.30;;;8.50;58.10;;;;;;5093187;28;20172;-78
2022/03/19 09:05:52;;;;;;;52.90;25.27;;;8.50;57.60;;;;;;5092691;28;20871;-76
2022/03/19 09:08:18;;;;;;;50.57;23.90;;;8.60;57.60;;;;;;5093252;28;20414;-78
2022/03/19 09:10:43;;;;;;;51.13;24.53;;;8.60;57.40;;;;;;5093259;28;20464;-77
2022/03/19 09:13:09;;;;;;;43.50;22.00;;;8.60;57.40;;;;;;5093137;28;20572;-78
2022/03/19 09:15:35;;;;;;;51.10;24.37;;;8.70;57.70;;;;;;5092680;28;20201;-78
2022/03/19 09:18:01;;;;;;;45.73;24.60;;;8.70;57.40;;;;;;5083382;28;20191;-77
2022/03/19 09:20:26;;;;;;;47.47;23.37;;;8.70;57.20;;;;;;5096418;28;20206;-77
2022/03/19 09:22:52;;;;;;;49.13;26.13;;;8.70;57.30;;;;;;5094197;28;20184;-77
2022/03/19 09:25:18;;;;;;;45.27;25.07;;;8.70;57.40;;;;;;5088644;28;20183;-76
2022/03/19 09:27:44;;;;;;;41.30;23.47;;;8.80;57.60;;;;;;5078825;28;20182;-79
2022/03/19 09:30:10;;;;;;;43.43;24.80;;;8.90;57.20;;;;;;5097265;28;20931;-77
2022/03/19 09:32:36;;;;;;;47.67;24.37;;;9.00;57.30;;;;;;5088941;28;20258;-77
2022/03/19 09:35:03;;;;;;;45.47;24.73;;;9.10;57.30;;;;;;5103603;28;20416;-77
2022/03/19 09:37:29;;;;;;;51.20;24.97;;;9.20;56.90;;;;;;5107204;28;20414;-78
2022/03/19 09:39:54;;;;;;;55.43;25.87;;;9.20;57.20;;;;;;5109021;28;20464;-77
2022/03/19 09:42:20;;;;;;;45.97;24.80;;;9.30;56.80;;;;;;5094870;28;20285;-79
2022/03/19 09:44:46;;;;;;;49.07;25.07;;;9.30;56.60;;;;;;5095720;28;20205;-77
2022/03/19 09:47:13;;;;;;;49.03;25.47;;;9.40;56.80;;;;;;5076971;28;20182;-77
2022/03/19 09:49:39;;;;;;;45.80;24.77;;;9.30;56.40;;;;;;5093869;28;20455;-78
2022/03/19 09:52:05;;;;;;;50.90;26.43;;;9.30;56.20;;;;;;5093259;28;20452;-77
2022/03/19 09:54:31;;;;;;;58.40;27.60;;;9.40;56.60;;;;;;5093141;28;20175;-77
2022/03/19 09:56:57;;;;;;;48.07;25.10;;;9.50;56.40;;;;;;5096148;28;20425;-77
2022/03/19 09:59:24;;;;;;;51.63;26.30;;;9.60;55.70;;;;;;5078521;28;20453;-78
2022/03/19 10:01:51;;;;;;;53.40;26.67;;;9.60;56.00;;;;;;5076421;28;20475;-78
2022/03/19 10:04:19;;;;;;;50.50;25.00;;;9.70;55.60;;;;;;5093177;28;20409;-76
2022/03/19 10:09:47;;;;;;;50.30;27.00;;;9.80;55.60;;;;;;5087859;28;20746;-77
2022/03/19 10:12:30;;;;;;;49.40;25.87;;;9.80;55.30;;;;;;5092686;28;20484;-77
2022/03/19 10:14:57;;;;;;;50.53;26.00;;;10.00;55.40;;;;;;5091743;28;20530;-77
2022/03/19 10:17:31;;;;;;;55.47;26.20;;;10.00;54.20;;;;;;5065976;28;20437;-78
2022/03/19 10:19:59;;;;;;;52.83;25.63;;;10.00;53.80;;;;;;5092229;28;20774;-77
2022/03/19 10:22:28;;;;;;;51.77;25.00;;;10.00;54.00;;;;;;5091431;28;20974;-75
2022/03/19 10:25:05;;;;;;;48.80;26.47;;;10.00;53.60;;;;;;5087127;28;21075;-76
2022/03/19 10:27:36;;;;;;;47.93;24.57;;;10.00;53.40;;;;;;5089547;28;20555;-77
2022/03/19 10:30:18;;;;;;;44.90;24.70;;;10.10;53.60;;;;;;5079201;28;20489;-76
2022/03/19 10:32:48;;;;;;;51.50;26.83;;;10.20;53.20;;;;;;5100459;28;20860;-76
2022/03/19 10:35:26;;;;;;;52.50;26.30;;;10.20;52.90;;;;;;5081827;28;20516;-76
2022/03/19 10:37:53;;;;;;;47.50;25.03;;;10.40;53.30;;;;;;5101821;28;20421;-75
2022/03/19 10:40:20;;;;;;;55.10;28.00;;;10.40;53.30;;;;;;5098143;28;20461;-76
2022/03/19 10:42:46;;;;;;;46.37;24.73;;;10.50;53.30;;;;;;5104415;28;20420;-78
2022/03/19 10:45:20;;;;;;;59.67;28.20;;;10.60;53.60;;;;;;5096926;28;20417;-77
2022/03/19 10:47:47;;;;;;;51.43;27.70;;;10.70;53.00;;;;;;5091343;28;20936;-76
2022/03/19 10:50:24;;;;;;;56.80;26.97;;;11.00;53.00;;;;;;5097923;28;20401;-78
2022/03/19 10:52:52;;;;;;;51.13;27.73;;;11.40;52.50;;;;;;5105096;28;20421;-78
2022/03/19 10:55:19;;;;;;;56.13;27.73;;;11.70;51.80;;;;;;5085965;28;20448;-78
2022/03/19 10:57:45;;;;;;;52.40;27.73;;;12.00;51.20;;;;;;5100768;28;20416;-76
2022/03/19 11:00:12;;;;;;;52.10;27.77;;;12.10;51.00;;;;;;5102817;28;20461;-76
2022/03/19 11:02:49;;;;;;;55.37;27.80;;;12.30;50.60;;;;;;5092016;28;20452;-78
2022/03/19 11:05:19;;;;;;;53.47;27.07;;;12.30;50.90;;;;;;5105945;28;20413;-78
2022/03/19 11:07:46;;;;;;;56.53;28.43;;;12.30;51.30;;;;;;5107454;28;20481;-79
2022/03/19 11:10:12;;;;;;;54.60;27.03;;;12.10;51.40;;;;;;5103852;28;20460;-78
2022/03/19 11:12:42;;;;;;;51.13;27.47;;;12.00;52.00;;;;;;5100989;28;20511;-77
2022/03/19 11:15:13;;;;;;;58.10;28.00;;;12.10;51.30;;;;;;5099266;28;20417;-77
2022/03/19 11:17:44;;;;;;;51.87;26.40;;;12.20;51.40;;;;;;5097937;28;20420;-76
2022/03/19 11:20:12;;;;;;;48.57;24.63;;;12.30;50.90;;;;;;5084316;28;20456;-78
2022/03/19 11:22:50;;;;;;;49.77;25.70;;;12.40;50.30;;;;;;5079410;28;20432;-77
2022/03/19 11:25:30;;;;;;;50.73;26.10;;;12.60;49.30;;;;;;5093115;28;20996;-76
2022/03/19 11:28:06;;;;;;;50.73;24.10;;;12.80;48.30;;;;;;5079524;28;20812;-78
2022/03/19 11:30:34;;;;;;;42.07;22.70;;;13.10;48.30;;;;;;5098756;28;20506;-77
2022/03/19 11:33:00;;;;;;;34.23;18.10;;;13.60;46.50;;;;;;5097934;28;20421;-78
2022/03/19 11:35:26;;;;;;;37.80;18.57;;;13.80;43.80;;;;;;5097677;28;20429;-76
2022/03/19 11:38:01;;;;;;;33.67;17.20;;;13.70;43.40;;;;;;5076701;28;20493;-77
2022/03/19 11:40:29;;;;;;;29.90;15.00;;;13.50;42.60;;;;;;5097043;28;20481;-76
2022/03/19 11:43:00;;;;;;;26.87;15.47;;;13.20;43.00;;;;;;5095367;28;20409;-77
2022/03/19 11:45:27;;;;;;;39.13;16.20;;;12.70;44.60;;;;;;5094832;28;20413;-76
2022/03/19 11:47:53;;;;;;;31.77;14.83;;;12.40;45.50;;;;;;5093440;28;20417;-74
2022/03/19 11:50:23;;;;;;;25.50;13.17;;;12.10;46.10;;;;;;5076459;28;20885;-77
2022/03/19 11:52:55;;;;;;;31.47;15.37;;;11.90;46.90;;;;;;5078130;28;20440;-76
2022/03/19 11:55:24;;;;;;;26.17;14.20;;;11.90;46.60;;;;;;5094283;28;20425;-77
2022/03/19 11:58:03;;;;;;;24.80;12.47;;;12.00;46.20;;;;;;5093565;28;20520;-77
2022/03/19 12:00:34;;;;;;;29.40;13.67;;;12.20;46.70;;;;;;5081004;28;20509;-76
2022/03/19 12:03:07;;;;;;;29.77;13.20;;;12.10;47.00;;;;;;5095369;28;20440;-78
2022/03/19 12:05:35;;;;;;;28.73;13.33;;;12.00;47.70;;;;;;5087839;28;21076;-77
2022/03/19 12:08:09;;;;;;;26.57;12.33;;;12.10;47.50;;;;;;5078811;28;20401;-77
2022/03/19 12:10:54;;;;;;;32.10;13.20;;;12.20;46.90;;;;;;5096343;28;20431;-77
2022/03/19 12:13:29;;;;;;;25.70;11.40;;;12.30;45.30;;;;;;5098192;28;20749;-79
2022/03/19 12:15:56;;;;;;;23.13;11.47;;;12.50;44.90;;;;;;5095718;28;20430;-76
2022/03/19 12:18:38;;;;;;;21.13;11.07;;;12.60;44.30;;;;;;5094879;28;20867;-78
2022/03/19 12:21:24;;;;;;;24.30;11.70;;;12.70;43.80;;;;;;5094728;28;20464;-77
2022/03/19 12:24:02;;;;;;;25.17;11.70;;;12.60;44.10;;;;;;5081080;28;20962;-76
2022/03/19 12:26:39;;;;;;;28.07;11.37;;;12.40;44.70;;;;;;5092279;28;20517;-80
2022/03/19 12:29:17;;;;;;;20.73;10.53;;;12.40;42.40;;;;;;5077418;28;20410;-78
2022/03/19 12:31:48;;;;;;;26.07;10.90;;;12.40;41.80;;;;;;5090830;28;20461;-79
2022/03/19 12:34:25;;;;;;;21.80;11.17;;;12.70;41.40;;;;;;5094775;28;20413;-79
2022/03/19 12:36:58;;;;;;;22.57;10.30;;;12.70;41.20;;;;;;5077216;28;20523;-78
2022/03/19 12:39:24;;;;;;;24.47;11.03;;;12.70;41.80;;;;;;5094186;28;20420;-78
2022/03/19 12:41:50;;;;;;;25.60;11.83;;;13.00;41.40;;;;;;5095803;28;20891;-79
2022/03/19 12:44:26;;;;;;;21.47;12.27;;;13.30;41.50;;;;;;5077960;28;20187;-77
2022/03/19 12:47:03;;;;;;;22.93;11.83;;;13.20;42.20;;;;;;5079412;28;20246;-76
2022/03/19 12:49:31;;;;;;;22.23;11.60;;;13.00;43.40;;;;;;5087322;28;20497;-78
2022/03/19 12:51:57;;;;;;;19.70;11.30;;;12.30;44.30;;;;;;5097625;28;20449;-77
2022/03/19 12:54:27;;;;;;;26.40;11.10;;;12.10;44.30;;;;;;5096664;28;20520;-78